Time;durP1;ratioP1;P1;durP2;ratioP2;P2;SDS_P1;SDS_P2;PMS_P1;PMS_P2;Temp;Humidity;BMP_temperature;BMP_pressure;BME280_temperature;BME280_humidity;BME280_pressure;Samples;Min_cycle;Max_cycle;Signal;HPM_P1;HPM_P2
2021/11/19 00:00:54;;;;;;;20.10;12.68;;;;;;;3.67;90.81;97089.00;4990551;28;20097;-52
2021/11/19 00:03:22;;;;;;;19.17;12.27;;;;;;;3.72;90.49;97084.47;4990655;28;20054;-50
2021/11/19 00:05:50;;;;;;;21.15;12.75;;;;;;;4.15;87.98;97087.09;4990416;28;20038;-52
2021/11/19 00:08:25;;;;;;;18.35;12.70;;;;;;;3.82;89.36;97085.59;4989508;28;20408;-54
2021/11/19 00:10:53;;;;;;;18.67;12.77;;;;;;;3.86;88.88;97090.16;4990252;28;20074;-50
2021/11/19 00:13:20;;;;;;;19.30;12.85;;;;;;;3.71;89.40;97084.75;4989741;28;20142;-49
2021/11/19 00:15:48;;;;;;;19.42;12.90;;;;;;;3.55;90.12;97083.88;4991286;28;20153;-52
2021/11/19 00:18:16;;;;;;;20.95;12.73;;;;;;;3.38;90.69;97076.00;4990700;28;20133;-51
2021/11/19 00:20:43;;;;;;;20.08;13.50;;;;;;;3.43;91.23;97084.03;4998116;28;20046;-49
2021/11/19 00:23:11;;;;;;;21.58;13.20;;;;;;;3.58;89.91;97098.59;4988510;28;20126;-52
2021/11/19 00:25:40;;;;;;;21.25;12.75;;;;;;;3.71;89.01;97096.28;4982996;28;20419;-52
2021/11/19 00:28:07;;;;;;;24.63;13.82;;;;;;;3.43;89.51;97097.44;4983528;28;20138;-54
2021/11/19 00:30:37;;;;;;;20.58;12.73;;;;;;;3.45;90.00;97095.31;4981821;28;20130;-52
2021/11/19 00:33:05;;;;;;;20.65;13.48;;;;;;;3.39;90.56;97101.69;4987325;28;20411;-54
2021/11/19 00:35:37;;;;;;;23.00;13.90;;;;;;;3.41;90.53;97104.09;4989560;28;20400;-53
2021/11/19 00:38:06;;;;;;;21.10;13.50;;;;;;;3.15;91.82;97100.44;4989764;28;20060;-50
2021/11/19 00:40:45;;;;;;;20.30;12.82;;;;;;;3.13;92.02;97105.25;4990541;28;20129;-53
2021/11/19 00:43:12;;;;;;;23.67;13.93;;;;;;;3.26;91.82;97107.47;4989467;28;20109;-52
2021/11/19 00:45:39;;;;;;;22.05;12.80;;;;;;;3.17;92.34;97114.34;4985865;28;20046;-52
2021/11/19 00:48:08;;;;;;;20.92;13.20;;;;;;;3.18;92.49;97106.06;4994380;28;20054;-52
2021/11/19 00:50:44;;;;;;;21.17;13.45;;;;;;;3.15;92.71;97100.44;4992942;28;20132;-53
2021/11/19 00:53:12;;;;;;;18.17;11.88;;;;;;;3.09;92.92;97096.94;4989875;28;20045;-53
2021/11/19 00:55:39;;;;;;;19.90;12.95;;;;;;;3.14;93.16;97101.50;4984798;28;20408;-52
2021/11/19 00:58:07;;;;;;;19.63;12.00;;;;;;;3.12;93.02;97099.09;4992053;28;20046;-52
2021/11/19 01:00:44;;;;;;;19.67;12.05;;;;;;;3.15;93.16;97090.56;4992708;28;20069;-50
2021/11/19 01:03:16;;;;;;;21.70;12.45;;;;;;;3.19;93.16;97091.66;4989376;28;20603;-51
2021/11/19 01:05:44;;;;;;;19.92;12.60;;;;;;;3.14;93.15;97088.94;4992001;28;20411;-50
2021/11/19 01:08:11;;;;;;;22.65;13.05;;;;;;;3.10;93.21;97095.84;4993700;28;20046;-51
2021/11/19 01:10:40;;;;;;;18.33;11.80;;;;;;;3.44;91.61;97096.34;4990838;28;20100;-52
2021/11/19 01:13:08;;;;;;;21.17;13.30;;;;;;;3.48;91.32;97092.13;4991958;28;20100;-51
2021/11/19 01:15:45;;;;;;;19.52;12.65;;;;;;;3.44;90.83;97090.19;4993073;28;20133;-51
2021/11/19 01:18:24;;;;;;;18.45;11.77;;;;;;;3.52;90.04;97089.72;5007509;28;20574;-53
2021/11/19 01:20:57;;;;;;;22.00;13.23;;;;;;;3.35;91.28;97086.38;4990889;28;20066;-54
2021/11/19 01:23:26;;;;;;;21.38;13.60;;;;;;;3.55;90.29;97091.09;5023123;28;20053;-51
2021/11/19 01:25:59;;;;;;;20.75;13.25;;;;;;;3.36;90.90;97080.00;5025112;28;20779;-51
2021/11/19 01:28:27;;;;;;;19.55;12.00;;;;;;;3.10;92.28;97087.03;4992737;28;20123;-48
2021/11/19 01:31:05;;;;;;;22.23;13.45;;;;;;;3.07;93.09;97085.66;4993057;28;20109;-48
2021/11/19 01:33:34;;;;;;;23.27;13.05;;;;;;;3.45;91.22;97089.97;4990367;28;20507;-48
2021/11/19 01:36:22;;;;;;;22.40;13.35;;;;;;;3.35;90.67;97089.91;4993677;28;20050;-52
2021/11/19 01:39:10;;;;;;;21.42;13.88;;;;;;;3.13;92.60;97091.88;4992522;28;20188;-51
2021/11/19 01:42:22;;;;;;;21.63;13.75;;;;;;;3.69;89.48;97089.56;4993457;28;20042;-51
2021/11/19 01:45:11;;;;;;;22.17;12.97;;;;;;;3.39;91.04;97091.00;5011130;28;20178;-50
2021/11/19 01:47:49;;;;;;;22.15;12.48;;;;;;;3.32;91.30;97093.09;4992896;28;20808;-53
2021/11/19 01:50:27;;;;;;;22.15;13.05;;;;;;;3.40;90.46;97097.13;4991211;28;20042;-52
2021/11/19 01:53:13;;;;;;;21.67;13.50;;;;;;;3.23;91.24;97099.97;4989954;28;20050;-50
2021/11/19 01:55:56;;;;;;;19.92;12.95;;;;;;;2.85;93.34;97099.13;4994289;28;20113;-50
2021/11/19 01:58:28;;;;;;;21.88;13.50;;;;;;;2.98;93.50;97092.53;4992175;28;20070;-53
2021/11/19 02:01:05;;;;;;;22.90;13.70;;;;;;;3.10;93.03;97097.72;4991215;28;20468;-53
2021/11/19 02:03:35;;;;;;;21.30;13.10;;;;;;;3.31;90.49;97088.78;4989736;28;20046;-50
2021/11/19 02:06:21;;;;;;;23.63;14.70;;;;;;;3.10;91.29;97081.69;4991872;28;20034;-50
2021/11/19 02:08:55;;;;;;;21.40;13.48;;;;;;;2.93;92.58;97081.81;4989332;28;20058;-53
2021/11/19 02:11:47;;;;;;;22.58;13.68;;;;;;;3.00;92.97;97077.06;4988667;28;20047;-51
2021/11/19 02:14:26;;;;;;;24.58;14.35;;;;;;;3.13;90.88;97086.53;5019496;28;20078;-53
2021/11/19 02:16:59;;;;;;;23.35;14.02;;;;;;;3.10;91.10;97082.47;4991683;28;20034;-53
2021/11/19 02:19:34;;;;;;;23.42;14.20;;;;;;;2.86;92.21;97103.41;4989195;28;20054;-49
2021/11/19 02:22:10;;;;;;;24.67;15.05;;;;;;;2.75;93.12;97093.69;4991778;28;20054;-51
2021/11/19 02:24:47;;;;;;;24.85;15.27;;;;;;;2.50;94.28;97100.41;4990292;28;20130;-53
2021/11/19 02:27:23;;;;;;;24.73;14.75;;;;;;;2.16;96.15;97118.44;4990929;28;20384;-50
2021/11/19 02:29:55;;;;;;;23.30;14.80;;;;;;;2.20;96.50;97116.06;4991839;28;20068;-49
2021/11/19 02:32:32;;;;;;;25.42;15.35;;;;;;;2.29;96.51;97111.91;4987683;28;20030;-50
2021/11/19 02:35:00;;;;;;;23.08;13.90;;;;;;;2.49;96.19;97104.13;4991847;28;20074;-49
2021/11/19 02:37:39;;;;;;;24.70;14.80;;;;;;;2.53;95.45;97099.88;4986982;28;20062;-49
2021/11/19 02:40:12;;;;;;;23.00;14.52;;;;;;;2.60;94.17;97094.34;4988865;28;20097;-49
2021/11/19 02:42:50;;;;;;;23.35;13.82;;;;;;;2.69;93.81;97095.50;4988480;28;20050;-49
2021/11/19 02:45:34;;;;;;;24.23;13.70;;;;;;;2.42;93.10;97097.38;4991725;28;20085;-49
2021/11/19 02:48:03;;;;;;;24.35;14.70;;;;;;;2.74;92.85;97110.78;4990974;28;20117;-50
2021/11/19 02:50:32;;;;;;;24.17;14.45;;;;;;;2.27;94.23;97106.81;4990482;28;20042;-49
2021/11/19 02:53:00;;;;;;;25.60;14.95;;;;;;;2.47;93.43;97098.22;4990753;28;20046;-49
2021/11/19 02:55:31;;;;;;;22.27;14.07;;;;;;;2.36;94.38;97104.50;4989250;28;20042;-54
2021/11/19 02:57:59;;;;;;;23.45;14.18;;;;;;;2.43;93.88;97102.44;4992370;28;20050;-49
2021/11/19 03:00:36;;;;;;;22.98;14.15;;;;;;;2.46;93.33;97096.59;4992928;28;20043;-50
2021/11/19 03:03:03;;;;;;;23.02;13.95;;;;;;;2.48;92.64;97102.50;4989734;28;20074;-49
2021/11/19 03:05:31;;;;;;;25.23;15.18;;;;;;;2.55;92.85;97108.47;5019520;28;20077;-49
2021/11/19 03:07:58;;;;;;;25.65;15.23;;;;;;;2.12;94.78;97108.53;4990331;28;20046;-49
2021/11/19 03:10:32;;;;;;;25.48;15.07;;;;;;;2.65;93.08;97110.41;4990976;28;20130;-50
2021/11/19 03:13:03;;;;;;;26.00;15.10;;;;;;;2.29;93.63;97122.59;4989959;28;20573;-51
2021/11/19 03:15:32;;;;;;;28.40;15.68;;;;;;;2.48;93.09;97120.41;4990774;28;20077;-50
2021/11/19 03:17:59;;;;;;;23.67;13.65;;;;;;;2.60;93.44;97120.25;4992177;28;20046;-49
2021/11/19 03:20:27;;;;;;;23.73;14.15;;;;;;;2.77;92.02;97120.97;4989004;28;20112;-54
2021/11/19 03:22:56;;;;;;;22.55;13.90;;;;;;;2.67;91.77;97120.88;4990402;28;20035;-49
2021/11/19 03:25:30;;;;;;;22.75;13.95;;;;;;;2.52;91.87;97116.16;4978016;28;20046;-50
2021/11/19 03:28:02;;;;;;;24.88;14.88;;;;;;;2.77;90.49;97118.28;4990047;28;20046;-49
2021/11/19 03:30:34;;;;;;;22.55;13.50;;;;;;;2.50;91.60;97116.44;5023154;28;20038;-51
2021/11/19 03:33:03;;;;;;;25.92;14.57;;;;;;;2.38;91.71;97115.75;4988155;28;20066;-53
2021/11/19 03:35:30;;;;;;;22.92;13.32;;;;;;;2.34;91.18;97115.47;4986678;28;20054;-51
2021/11/19 03:37:57;;;;;;;25.67;14.73;;;;;;;2.10;93.96;97111.44;4990385;28;20137;-50
2021/11/19 03:40:30;;;;;;;24.42;13.98;;;;;;;1.94;95.30;97110.44;5023283;28;20060;-49
2021/11/19 03:42:59;;;;;;;23.85;13.95;;;;;;;1.82;96.16;97104.41;4989485;28;20483;-50
2021/11/19 03:45:32;;;;;;;24.20;13.82;;;;;;;1.85;96.12;97103.91;4989125;28;20046;-50
2021/11/19 03:48:01;;;;;;;22.42;13.70;;;;;;;1.87;96.19;97102.59;5023285;28;20468;-50
2021/11/19 03:50:40;;;;;;;22.55;14.25;;;;;;;2.00;95.92;97111.31;4989505;28;20050;-51
2021/11/19 03:53:09;;;;;;;21.27;12.98;;;;;;;1.97;95.78;97104.59;4990950;28;20054;-52
2021/11/19 03:55:40;;;;;;;26.27;15.18;;;;;;;2.11;95.91;97105.03;5005630;28;20046;-50
2021/11/19 03:58:07;;;;;;;25.75;14.85;;;;;;;1.90;94.96;97109.31;4989703;28;20046;-53
2021/11/19 04:00:43;;;;;;;23.33;14.18;;;;;;;2.14;95.06;97107.19;4990270;28;20046;-49
2021/11/19 04:03:11;;;;;;;24.17;13.98;;;;;;;2.42;92.51;97108.06;4988981;28;20081;-52
2021/11/19 04:05:39;;;;;;;24.98;14.75;;;;;;;2.46;91.98;97104.63;4989331;28;20078;-53
2021/11/19 04:08:07;;;;;;;23.65;14.32;;;;;;;2.54;91.57;97096.16;4989342;28;20054;-52
2021/11/19 04:10:41;;;;;;;25.90;14.65;;;;;;;2.66;90.57;97089.84;4990284;28;20039;-50
2021/11/19 04:13:10;;;;;;;25.55;14.90;;;;;;;2.53;90.89;97088.38;4989549;28;20408;-48
2021/11/19 04:15:42;;;;;;;25.20;14.32;;;;;;;2.32;92.67;97087.38;4992124;28;20113;-52
2021/11/19 04:18:11;;;;;;;26.50;15.43;;;;;;;2.29;93.03;97093.22;4995277;28;20046;-51
2021/11/19 04:20:40;;;;;;;22.58;13.63;;;;;;;2.23;94.33;97080.88;4994196;28;20387;-51
2021/11/19 04:23:07;;;;;;;22.70;13.95;;;;;;;2.15;95.11;97086.66;4992128;28;20050;-53
2021/11/19 04:25:35;;;;;;;22.02;13.65;;;;;;;2.31;94.65;97088.44;4993807;28;20407;-50
2021/11/19 04:28:03;;;;;;;22.70;12.98;;;;;;;2.70;92.20;97089.09;4992529;28;20133;-51
2021/11/19 04:30:48;;;;;;;24.10;14.73;;;;;;;2.78;91.00;97101.19;4994039;28;20053;-51
2021/11/19 04:33:17;;;;;;;23.20;13.45;;;;;;;2.67;92.00;97100.31;4992918;28;20034;-50
2021/11/19 04:35:47;;;;;;;22.58;12.55;;;;;;;2.51;93.14;97096.66;4993703;28;20046;-51
2021/11/19 04:38:16;;;;;;;21.33;13.27;;;;;;;2.40;94.26;97096.81;4993569;28;20508;-52
2021/11/19 04:40:43;;;;;;;21.10;14.07;;;;;;;2.59;93.18;97098.06;4992741;28;20118;-50
2021/11/19 04:43:12;;;;;;;21.65;13.93;;;;;;;2.47;93.92;97089.38;4992595;28;20042;-50
2021/11/19 04:45:40;;;;;;;20.55;13.02;;;;;;;2.56;94.02;97086.00;4992664;28;20057;-49
2021/11/19 04:48:07;;;;;;;23.02;13.55;;;;;;;2.41;93.41;97083.22;4992546;28;20057;-51
2021/11/19 04:50:38;;;;;;;22.80;14.18;;;;;;;2.57;93.23;97090.31;4976447;28;20070;-54
2021/11/19 04:53:07;;;;;;;22.05;13.52;;;;;;;2.54;93.28;97090.03;4992656;28;20046;-52
2021/11/19 04:55:35;;;;;;;19.85;12.52;;;;;;;2.55;92.14;97083.59;5008836;28;20077;-54
2021/11/19 04:58:03;;;;;;;23.30;13.57;;;;;;;2.43;93.64;97086.41;4992949;28;20045;-51
2021/11/19 05:00:42;;;;;;;21.23;12.20;;;;;;;2.44;93.64;97090.72;4993045;28;20170;-49
2021/11/19 05:03:17;;;;;;;20.73;12.93;;;;;;;2.52;93.31;97090.25;4992093;28;20047;-50
2021/11/19 05:05:46;;;;;;;19.85;12.75;;;;;;;2.52;92.35;97084.91;4994037;28;20101;-51
2021/11/19 05:08:14;;;;;;;21.10;13.18;;;;;;;2.38;93.47;97090.91;4993646;28;20163;-52
2021/11/19 05:10:44;;;;;;;19.25;12.65;;;;;;;2.65;93.05;97086.38;4992914;28;20338;-52
2021/11/19 05:13:12;;;;;;;21.98;13.13;;;;;;;2.53;92.72;97073.16;4992309;28;20043;-50
2021/11/19 05:15:50;;;;;;;17.65;11.15;;;;;;;2.26;94.23;97069.69;4992733;28;20081;-52
2021/11/19 05:18:18;;;;;;;17.02;10.95;;;;;;;2.36;94.73;97069.00;4993199;28;20046;-50
2021/11/19 05:20:45;;;;;;;19.20;11.30;;;;;;;2.54;93.22;97080.13;4991235;28;20049;-51
2021/11/19 05:23:12;;;;;;;19.80;11.85;;;;;;;2.53;93.43;97078.50;4988090;28;20108;-55
2021/11/19 05:25:40;;;;;;;21.63;12.95;;;;;;;2.45;93.82;97076.31;4992219;28;20064;-51
2021/11/19 05:28:09;;;;;;;19.33;11.95;;;;;;;2.52;93.35;97079.56;4992553;28;20416;-51
2021/11/19 05:30:39;;;;;;;20.35;12.23;;;;;;;2.45;94.18;97080.84;4993214;28;20385;-50
2021/11/19 05:33:10;;;;;;;19.67;12.05;;;;;;;2.43;94.62;97074.94;4991499;28;20408;-49
2021/11/19 05:35:38;;;;;;;20.20;11.57;;;;;;;2.37;94.75;97068.72;4992029;28;20088;-49
2021/11/19 05:38:06;;;;;;;21.73;12.15;;;;;;;2.41;95.00;97064.50;4991712;28;20401;-52
2021/11/19 05:40:34;;;;;;;19.77;12.60;;;;;;;2.51;94.62;97061.94;4991692;28;20046;-48
2021/11/19 05:43:02;;;;;;;19.50;11.43;;;;;;;2.51;94.74;97064.63;4991082;28;20567;-50
2021/11/19 05:45:37;;;;;;;19.30;11.30;;;;;;;2.48;94.87;97059.78;5005578;28;20055;-47
2021/11/19 05:48:10;;;;;;;20.10;11.57;;;;;;;2.50;94.99;97065.69;4990367;28;20042;-50
2021/11/19 05:50:41;;;;;;;24.77;13.68;;;;;;;2.58;94.68;97065.22;4992543;28;20120;-49
2021/11/19 05:53:11;;;;;;;21.23;11.85;;;;;;;2.50;94.98;97065.69;4991428;28;20097;-50
2021/11/19 05:55:42;;;;;;;23.75;14.13;;;;;;;2.50;94.95;97063.00;4989854;28;20369;-52
2021/11/19 05:58:09;;;;;;;22.88;13.40;;;;;;;2.54;95.02;97074.78;4991759;28;20038;-54
2021/11/19 06:00:47;;;;;;;24.25;13.50;;;;;;;2.68;94.50;97074.38;4992102;28;20055;-52
2021/11/19 06:03:23;;;;;;;23.38;13.63;;;;;;;2.76;94.11;97076.56;4990320;28;20476;-54
2021/11/19 06:06:09;;;;;;;28.10;13.65;;;;;;;2.88;93.49;97081.75;4992855;28;20055;-51
2021/11/19 06:09:00;;;;;;;23.02;14.20;;;;;;;3.10;92.17;97087.84;4987878;28;20113;-50
2021/11/19 06:11:32;;;;;;;24.95;14.38;;;;;;;3.20;92.06;97085.22;4992419;28;20424;-50
2021/11/19 06:14:12;;;;;;;22.25;13.70;;;;;;;3.08;92.12;97087.28;4992017;28;20053;-50
2021/11/19 06:16:46;;;;;;;26.65;13.05;;;;;;;2.89;93.11;97086.03;4993232;28;20506;-52
2021/11/19 06:19:19;;;;;;;25.08;14.30;;;;;;;2.74;93.61;97084.06;4993037;28;20077;-48
2021/11/19 06:21:56;;;;;;;24.77;14.60;;;;;;;2.75;93.58;97080.31;4991671;28;20133;-52
2021/11/19 06:24:36;;;;;;;24.23;14.77;;;;;;;2.72;94.02;97086.97;4989394;28;20046;-55
2021/11/19 06:27:04;;;;;;;26.23;15.15;;;;;;;2.69;93.80;97097.34;4991739;28;20050;-49
2021/11/19 06:29:32;;;;;;;22.00;13.32;;;;;;;2.66;93.91;97101.34;4991674;28;20046;-49
2021/11/19 06:32:00;;;;;;;22.90;13.55;;;;;;;2.60;94.36;97099.69;4993186;28;20095;-50
2021/11/19 06:34:28;;;;;;;22.83;13.75;;;;;;;2.68;94.24;97095.75;4990035;28;20078;-49
2021/11/19 06:36:56;;;;;;;23.35;13.52;;;;;;;2.77;93.75;97104.94;4991339;28;20225;-48
2021/11/19 06:39:42;;;;;;;24.42;14.40;;;;;;;2.75;93.38;97115.88;4990898;28;20038;-54
2021/11/19 06:42:21;;;;;;;21.50;13.82;;;;;;;3.01;93.00;97114.22;4990455;28;20524;-48
2021/11/19 06:45:07;;;;;;;25.13;15.35;;;;;;;2.99;92.17;97121.72;4992564;28;20062;-52
2021/11/19 06:47:52;;;;;;;22.48;14.57;;;;;;;3.01;92.73;97127.59;5023079;28;20575;-53
2021/11/19 06:50:40;;;;;;;23.17;15.13;;;;;;;3.08;92.64;97126.56;4990664;28;20049;-54
2021/11/19 06:53:27;;;;;;;23.88;14.75;;;;;;;3.37;90.79;97143.94;4974360;28;20069;-53
2021/11/19 06:56:18;;;;;;;25.40;14.38;;;;;;;3.50;88.88;97140.00;4989724;28;20043;-49
2021/11/19 06:58:57;;;;;;;27.00;15.10;;;;;;;3.32;89.45;97145.78;4991132;28;20101;-50
2021/11/19 07:01:24;;;;;;;27.90;15.63;;;;;;;3.42;89.26;97143.97;4990922;28;20042;-50
2021/11/19 07:03:51;;;;;;;26.75;15.55;;;;;;;3.25;90.49;97141.44;4990001;28;20042;-51
2021/11/19 07:06:18;;;;;;;26.55;15.32;;;;;;;3.28;90.76;97143.63;4992152;28;20258;-50
2021/11/19 07:08:46;;;;;;;26.27;15.45;;;;;;;3.32;89.61;97148.44;4990853;28;20042;-49
2021/11/19 07:11:18;;;;;;;30.02;16.00;;;;;;;3.43;89.61;97145.59;4990001;28;20106;-52
2021/11/19 07:13:48;;;;;;;29.50;16.73;;;;;;;3.35;89.42;97140.72;4990762;28;20112;-52
2021/11/19 07:16:24;;;;;;;30.15;16.23;;;;;;;3.32;89.62;97146.59;4991283;28;20085;-48
2021/11/19 07:18:53;;;;;;;31.33;17.35;;;;;;;3.43;89.29;97153.59;4990831;28;20046;-50
2021/11/19 07:21:22;;;;;;;33.30;18.05;;;;;;;3.58;89.15;97152.94;4990974;28;20539;-49
2021/11/19 07:23:50;;;;;;;30.63;17.05;;;;;;;3.55;89.66;97144.59;4989549;28;20514;-49
2021/11/19 07:26:18;;;;;;;30.35;16.10;;;;;;;3.37;90.25;97141.25;4991345;28;20046;-52
2021/11/19 07:28:46;;;;;;;23.55;14.95;;;;;;;3.25;91.22;97137.94;5018907;28;20056;-50
2021/11/19 07:31:33;;;;;;;28.02;15.90;;;;;;;3.19;92.07;97139.00;4999267;28;20042;-50
2021/11/19 07:34:21;;;;;;;43.45;23.08;;;;;;;3.27;91.87;97143.84;4956614;28;20054;-52
2021/11/19 07:37:04;;;;;;;41.15;22.55;;;;;;;3.49;91.47;97138.41;4990878;28;20043;-49
2021/11/19 07:39:36;;;;;;;35.17;19.75;;;;;;;3.47;91.48;97137.84;4992162;28;20121;-50
2021/11/19 07:42:20;;;;;;;31.15;18.15;;;;;;;3.40;92.00;97146.09;5019934;22;20107;-56
2021/11/19 07:44:47;;;;;;;30.55;16.65;;;;;;;3.46;92.28;97149.63;4990788;28;20051;-54
2021/11/19 07:47:24;;;;;;;26.13;15.70;;;;;;;3.50;92.35;97143.50;4979722;28;20114;-55
2021/11/19 07:49:51;;;;;;;26.25;14.85;;;;;;;3.65;91.90;97152.69;5005391;28;20089;-52
2021/11/19 07:52:21;;;;;;;24.77;15.15;;;;;;;3.72;92.04;97142.56;4993934;28;20069;-57
2021/11/19 07:54:49;;;;;;;23.50;14.05;;;;;;;3.67;91.91;97145.19;4993765;28;20096;-54
2021/11/19 07:57:19;;;;;;;21.75;14.55;;;;;;;3.83;91.71;97146.91;4993975;28;20106;-53
2021/11/19 07:59:46;;;;;;;24.20;14.57;;;;;;;4.07;90.86;97159.91;4992168;28;20078;-51
2021/11/19 08:02:13;;;;;;;22.27;13.75;;;;;;;4.07;90.39;97151.88;4991847;28;20443;-52
2021/11/19 08:04:41;;;;;;;26.02;14.07;;;;;;;4.20;90.74;97146.03;4994353;28;20096;-50
2021/11/19 08:07:19;;;;;;;23.08;13.07;;;;;;;4.27;90.01;97153.84;4993715;28;20058;-53
2021/11/19 08:09:52;;;;;;;21.95;13.02;;;;;;;4.23;89.51;97161.59;4985278;28;20054;-53
2021/11/19 08:12:44;;;;;;;21.45;12.95;;;;;;;4.32;89.37;97151.16;4998430;28;20081;-53
2021/11/19 08:15:23;;;;;;;19.20;11.80;;;;;;;4.34;89.06;97163.25;5008452;28;20066;-54
2021/11/19 08:17:53;;;;;;;17.42;11.82;;;;;;;4.28;89.14;97158.13;4993252;28;20038;-53
2021/11/19 08:20:29;;;;;;;18.77;11.50;;;;;;;4.28;89.25;97161.59;4992232;28;20053;-53
2021/11/19 08:22:56;;;;;;;14.43;9.90;;;;;;;4.49;88.78;97164.38;4985530;28;20125;-54
2021/11/19 08:25:25;;;;;;;19.40;11.07;;;;;;;4.67;88.38;97161.22;4990113;28;20048;-54
2021/11/19 08:27:55;;;;;;;16.67;10.65;;;;;;;4.76;87.81;97169.56;4994314;28;20066;-52
2021/11/19 08:30:30;;;;;;;19.00;11.60;;;;;;;4.96;86.66;97160.75;4994223;28;20052;-53
2021/11/19 08:33:02;;;;;;;16.67;10.48;;;;;;;4.92;86.97;97171.19;4987038;28;20042;-51
2021/11/19 08:35:31;;;;;;;16.58;10.15;;;;;;;4.99;86.58;97166.38;4994922;28;20054;-49
2021/11/19 08:37:58;;;;;;;15.52;9.60;;;;;;;4.86;86.52;97162.31;4992663;28;20053;-51
2021/11/19 08:40:27;;;;;;;15.63;9.80;;;;;;;4.66;87.19;97157.72;5000721;28;20046;-54
2021/11/19 08:42:54;;;;;;;16.13;9.48;;;;;;;4.75;87.21;97152.66;4982135;28;20097;-52
2021/11/19 08:45:24;;;;;;;12.95;8.77;;;;;;;4.72;87.45;97155.06;4995411;28;20069;-53
2021/11/19 08:47:55;;;;;;;13.60;9.40;;;;;;;4.80;86.97;97151.84;4993580;28;20041;-50
2021/11/19 08:50:26;;;;;;;14.15;9.25;;;;;;;4.78;86.80;97154.81;4986416;28;20093;-51
2021/11/19 08:52:54;;;;;;;14.05;8.48;;;;;;;4.79;86.97;97148.38;4998019;28;20141;-52
2021/11/19 08:55:21;;;;;;;13.90;8.70;;;;;;;5.06;86.26;97144.66;5001437;28;20046;-54
2021/11/19 08:57:49;;;;;;;12.98;8.90;;;;;;;5.01;86.26;97152.72;4990833;28;20065;-50
2021/11/19 09:00:26;;;;;;;11.40;8.18;;;;;;;5.20;85.47;97155.66;4993599;28;20042;-51
2021/11/19 09:02:58;;;;;;;12.60;8.57;;;;;;;5.05;85.41;97149.22;4985646;28;20051;-52
2021/11/19 09:05:29;;;;;;;11.23;8.48;;;;;;;5.32;84.51;97154.31;4985046;28;20066;-54
2021/11/19 09:07:56;;;;;;;12.63;8.05;;;;;;;5.35;83.88;97153.00;4994408;28;20034;-50
2021/11/19 09:10:25;;;;;;;12.30;7.80;;;;;;;5.43;83.70;97151.63;4993340;28;20141;-53
2021/11/19 09:12:52;;;;;;;10.38;7.47;;;;;;;5.49;83.70;97162.13;4995603;28;20055;-51
2021/11/19 09:15:22;;;;;;;11.50;7.95;;;;;;;5.29;84.25;97167.47;4994962;28;20088;-53
2021/11/19 09:18:03;;;;;;;12.20;7.70;;;;;;;5.54;83.32;97167.47;5000331;28;20042;-51
2021/11/19 09:21:06;;;;;;;13.07;7.55;;;;;;;5.37;83.59;97164.28;4999860;28;20066;-54
2021/11/19 09:23:38;;;;;;;12.25;8.57;;;;;;;5.51;83.52;97162.66;4987922;28;20074;-53
2021/11/19 09:26:11;;;;;;;14.50;8.60;;;;;;;5.58;83.83;97159.69;4980920;28;20038;-52
2021/11/19 09:28:45;;;;;;;12.18;8.15;;;;;;;5.58;83.00;97155.13;4992667;28;20089;-51
2021/11/19 09:31:16;;;;;;;10.68;7.72;;;;;;;5.73;82.28;97159.69;4994318;28;20175;-52
2021/11/19 09:33:46;;;;;;;10.50;7.75;;;;;;;5.65;82.75;97168.28;4988635;28;20395;-50
2021/11/19 09:36:14;;;;;;;10.77;6.93;;;;;;;5.71;81.80;97153.78;4995408;28;20046;-53
2021/11/19 09:38:41;;;;;;;9.55;6.75;;;;;;;5.78;81.71;97156.19;5017748;28;20052;-50
2021/11/19 09:41:31;;;;;;;8.43;6.07;;;;;;;5.72;80.82;97158.09;4993033;28;20093;-50
2021/11/19 09:44:16;;;;;;;9.38;6.90;;;;;;;5.95;80.82;97150.56;4976183;28;20074;-53
2021/11/19 09:47:02;;;;;;;11.48;6.30;;;;;;;5.88;81.01;97155.34;4993703;28;20121;-55
2021/11/19 09:49:51;;;;;;;9.88;6.88;;;;;;;5.90;81.33;97150.53;4983660;28;20054;-52
2021/11/19 09:53:06;;;;;;;10.68;7.15;;;;;;;5.81;81.55;97145.69;4977296;28;20082;-51
2021/11/19 09:56:06;;;;;;;11.15;7.53;;;;;;;5.91;81.21;97144.88;4953637;28;20047;-52
2021/11/19 09:58:59;;;;;;;12.98;8.93;;;;;;;5.94;80.66;97140.88;4996271;28;20136;-50
2021/11/19 10:01:57;;;;;;;13.65;9.10;;;;;;;6.23;80.52;97147.22;4996565;28;20125;-51
2021/11/19 10:05:02;;;;;;;11.45;7.63;;;;;;;6.24;80.58;97148.84;4989512;28;20189;-50
2021/11/19 10:08:04;;;;;;;11.85;8.18;;;;;;;6.39;79.46;97149.88;4992310;28;20567;-51
2021/11/19 10:10:35;;;;;;;11.38;7.85;;;;;;;6.23;79.72;97151.81;4988802;28;20764;-52
2021/11/19 10:13:21;;;;;;;18.30;11.30;;;;;;;6.01;80.51;97139.53;4997063;28;20141;-55
2021/11/19 10:16:03;;;;;;;13.32;9.02;;;;;;;6.23;79.51;97141.84;4992248;28;20046;-54
2021/11/19 10:18:35;;;;;;;15.43;9.70;;;;;;;6.14;80.09;97142.69;4999929;28;20046;-53
2021/11/19 10:21:16;;;;;;;12.48;9.27;;;;;;;6.41;80.11;97137.75;4977692;28;20049;-54
2021/11/19 10:24:05;;;;;;;15.95;10.40;;;;;;;6.24;79.55;97137.28;4987367;28;20043;-52
2021/11/19 10:26:36;;;;;;;16.30;11.15;;;;;;;6.31;79.62;97130.53;5012494;28;20081;-53
2021/11/19 10:29:23;;;;;;;17.92;11.80;;;;;;;6.16;80.06;97135.16;4994735;28;20569;-53
2021/11/19 10:31:59;;;;;;;18.88;11.50;;;;;;;6.14;80.18;97124.69;4990775;28;20061;-53
2021/11/19 10:34:48;;;;;;;18.83;11.63;;;;;;;6.04;80.60;97122.81;4989087;28;20109;-56
2021/11/19 10:37:28;;;;;;;19.50;11.57;;;;;;;6.21;80.66;97125.22;4986678;28;20104;-54
2021/11/19 10:40:30;;;;;;;21.90;11.88;;;;;;;6.23;79.76;97130.31;5006753;28;20053;-54
2021/11/19 10:43:09;;;;;;;16.25;10.65;;;;;;;6.07;81.01;97124.97;4994280;28;20069;-51
2021/11/19 10:46:23;;;;;;;17.45;11.75;;;;;;;6.22;80.56;97117.94;4996002;28;20141;-51
2021/11/19 10:49:09;;;;;;;15.88;10.38;;;;;;;6.26;80.21;97121.69;4982708;28;20058;-50
2021/11/19 10:52:01;;;;;;;20.27;11.20;;;;;;;6.29;80.03;97126.53;4988341;28;20397;-50
2021/11/19 10:54:47;;;;;;;16.35;11.45;;;;;;;6.28;80.44;97123.03;4979518;28;20050;-52
2021/11/19 10:57:48;;;;;;;15.68;10.35;;;;;;;6.24;79.98;97115.78;4994330;28;20142;-53
2021/11/19 11:00:43;;;;;;;14.43;9.65;;;;;;;6.51;79.55;97116.19;4992568;28;20140;-51
2021/11/19 11:03:17;;;;;;;13.68;9.65;;;;;;;6.66;79.04;97111.81;4985792;28;20054;-54
2021/11/19 11:05:56;;;;;;;14.75;10.05;;;;;;;6.98;77.71;97108.66;4992511;28;20052;-55
2021/11/19 11:08:27;;;;;;;14.77;9.98;;;;;;;6.75;77.68;97112.84;4988714;28;20068;-53
2021/11/19 11:10:59;;;;;;;14.82;10.65;;;;;;;6.78;78.67;97107.69;4987901;28;20193;-49
2021/11/19 11:13:55;;;;;;;14.05;9.32;;;;;;;6.74;78.21;97106.66;4993559;28;20480;-52
2021/11/19 11:16:35;;;;;;;15.02;10.45;;;;;;;7.10;77.61;97105.63;4974919;28;20100;-52
2021/11/19 11:19:17;;;;;;;13.30;9.60;;;;;;;7.50;75.57;97099.06;4994749;28;20073;-49
2021/11/19 11:21:50;;;;;;;14.18;8.93;;;;;;;7.99;74.93;97089.94;4989475;28;20051;-49
2021/11/19 11:24:23;;;;;;;14.93;10.10;;;;;;;8.79;71.29;97091.13;4994973;28;20153;-48
2021/11/19 11:27:01;;;;;;;13.27;9.38;;;;;;;8.46;70.28;97085.66;4988362;28;20039;-46
2021/11/19 11:29:41;;;;;;;14.00;9.02;;;;;;;8.60;70.75;97089.22;4998378;28;20457;-47
2021/11/19 11:32:11;;;;;;;14.82;9.98;;;;;;;8.31;72.01;97086.59;4996223;28;20221;-52
2021/11/19 11:34:42;;;;;;;14.52;9.82;;;;;;;8.26;71.77;97073.22;4991657;28;20051;-45
2021/11/19 11:37:34;;;;;;;16.23;11.05;;;;;;;8.18;72.15;97054.97;4991178;28;20137;-51
2021/11/19 11:40:13;;;;;;;15.75;10.52;;;;;;;8.35;71.60;97049.91;4998617;28;20503;-47
2021/11/19 11:42:44;;;;;;;12.80;9.35;;;;;;;8.20;71.92;97042.81;4989114;28;20049;-49
2021/11/19 11:45:19;;;;;;;13.15;8.57;;;;;;;8.35;71.20;97035.59;4995714;28;20794;-50
2021/11/19 11:48:07;;;;;;;15.52;10.23;;;;;;;8.65;70.13;97037.91;4991561;28;20494;-50
2021/11/19 11:50:55;;;;;;;15.98;12.07;;;;;;;8.99;68.91;97036.84;4989096;28;20069;-49
2021/11/19 11:53:56;;;;;;;14.32;9.23;;;;;;;8.99;68.44;97042.22;4988839;28;20468;-44
2021/11/19 11:56:31;;;;;;;14.98;9.20;;;;;;;8.55;69.94;97037.25;4985328;28;20404;-48
2021/11/19 11:59:06;;;;;;;14.65;9.90;;;;;;;8.18;70.89;97034.19;4993869;28;20403;-48
2021/11/19 12:01:58;;;;;;;14.32;9.77;;;;;;;8.14;71.63;97030.47;4984568;28;20093;-45